createdAt,value
2022-08-04T00:01:08.249Z,101284.66
2022-08-04T00:04:05.801Z,101273.63
2022-08-04T00:06:41.954Z,101278.25
2022-08-04T00:09:14.520Z,101277.34
2022-08-04T00:11:45.837Z,101282.03
2022-08-04T00:14:16.804Z,101278.44
2022-08-04T00:16:44.139Z,101280.56
2022-08-04T00:19:19.074Z,101281.88
2022-08-04T00:21:48.760Z,101289.75
2022-08-04T00:24:16.396Z,101276.22
2022-08-04T00:26:43.381Z,101277.47
2022-08-04T00:29:10.609Z,101282.97
2022-08-04T00:31:55.992Z,101281.06
2022-08-04T00:34:28.873Z,101287.84
2022-08-04T00:36:58.659Z,101283.59
2022-08-04T00:39:25.861Z,101290.03
2022-08-04T00:42:20.847Z,101282.75
2022-08-04T00:44:47.317Z,101283.34
2022-08-04T00:47:40.464Z,101277.69
2022-08-04T00:50:47.592Z,101283.69
2022-08-04T00:53:53.148Z,101286.44
2022-08-04T00:56:38.011Z,101287.34
2022-08-04T00:59:38.377Z,101290.59
2022-08-04T01:02:27.933Z,101294.06
2022-08-04T01:05:15.603Z,101297.88
2022-08-04T01:08:00.216Z,101297.41
2022-08-04T01:10:54.796Z,101300.00
2022-08-04T01:13:43.059Z,101293.66
2022-08-04T01:16:14.811Z,101293.25
2022-08-04T01:19:02.089Z,101297.41
2022-08-04T01:21:31.522Z,101286.59
2022-08-04T01:24:27.735Z,101300.59
2022-08-04T01:27:11.737Z,101302.53
2022-08-04T01:29:46.736Z,101299.19
2022-08-04T01:32:21.027Z,101307.22
2022-08-04T01:34:56.344Z,101305.31
2022-08-04T01:37:41.196Z,101305.38
2022-08-04T01:40:08.445Z,101303.50
2022-08-04T01:42:37.528Z,101299.72
2022-08-04T01:45:09.678Z,101305.00
2022-08-04T01:47:38.514Z,101296.34
2022-08-04T01:50:08.287Z,101287.69
2022-08-04T01:52:37.291Z,101291.94
2022-08-04T01:55:10.331Z,101290.06
2022-08-04T01:57:45.292Z,101287.75
2022-08-04T02:00:13.874Z,101282.88
2022-08-04T02:02:40.774Z,101285.19
2022-08-04T02:05:12.296Z,101291.06
2022-08-04T02:07:47.910Z,101282.38
2022-08-04T02:10:23.746Z,101281.13
2022-08-04T02:13:17.636Z,101278.66
2022-08-04T02:15:57.818Z,101280.16
2022-08-04T02:18:30.066Z,101282.50
2022-08-04T02:21:01.727Z,101281.44
2022-08-04T02:23:30.953Z,101287.78
2022-08-04T02:26:06.485Z,101288.41
2022-08-04T02:29:03.654Z,101287.97
2022-08-04T02:31:47.755Z,101291.53
2022-08-04T02:34:21.798Z,101293.00
2022-08-04T02:36:48.575Z,101285.41
2022-08-04T02:39:19.332Z,101290.28
2022-08-04T02:41:47.515Z,101287.13
2022-08-04T02:44:14.563Z,101287.97
2022-08-04T02:46:42.099Z,101295.41
2022-08-04T02:49:10.301Z,101284.00
2022-08-04T02:51:41.792Z,101289.47
2022-08-04T02:54:08.816Z,101282.03
2022-08-04T02:56:37.333Z,101285.41
2022-08-04T02:59:07.458Z,101292.63
2022-08-04T03:01:34.938Z,101281.22
2022-08-04T03:04:24.938Z,101276.41
2022-08-04T03:06:57.742Z,101287.81
2022-08-04T03:09:30.286Z,101283.19
2022-08-04T03:12:32.556Z,101284.88
2022-08-04T03:15:17.969Z,101280.63
2022-08-04T03:17:59.487Z,101283.38
2022-08-04T03:20:57.019Z,101290.59
2022-08-04T03:23:54.575Z,101289.75
2022-08-04T03:26:21.082Z,101280.00
2022-08-04T03:28:58.930Z,101282.56
2022-08-04T03:31:49.443Z,101277.88
2022-08-04T03:34:34.587Z,101277.69
2022-08-04T03:37:31.736Z,101273.00
2022-08-04T03:40:22.563Z,101272.81
2022-08-04T03:43:57.257Z,101275.78
2022-08-04T03:46:23.622Z,101267.25
2022-08-04T03:49:08.842Z,101275.94
2022-08-04T03:52:14.306Z,101280.63
2022-08-04T03:55:00.029Z,101279.16
2022-08-04T03:58:00.638Z,101279.50
2022-08-04T04:00:55.254Z,101272.28
2022-08-04T04:03:55.572Z,101278.63
2022-08-04T04:06:59.982Z,101271.50
2022-08-04T04:09:57.488Z,101274.88
2022-08-04T04:12:42.759Z,101272.97
2022-08-04T04:15:27.989Z,101273.66
2022-08-04T04:18:12.107Z,101275.78
2022-08-04T04:20:38.586Z,101274.94
2022-08-04T04:23:31.971Z,101273.00
2022-08-04T04:26:13.498Z,101282.13
2022-08-04T04:29:06.415Z,101274.69
2022-08-04T04:31:48.315Z,101280.38
2022-08-04T04:34:44.192Z,101277.38
2022-08-04T04:37:34.592Z,101279.63
2022-08-04T04:40:31.458Z,101279.13
2022-08-04T04:43:12.155Z,101291.25
2022-08-04T04:45:49.736Z,101279.53
2022-08-04T04:48:43.704Z,101287.34
2022-08-04T04:51:34.087Z,101287.47
2022-08-04T04:54:14.447Z,101289.31
2022-08-04T04:56:45.542Z,101292.69
2022-08-04T04:59:16.084Z,101289.25
2022-08-04T05:01:51.490Z,101290.78
2022-08-04T05:04:17.983Z,101292.91
2022-08-04T05:07:05.763Z,101292.09
2022-08-04T05:09:52.212Z,101291.41
2022-08-04T05:14:32.612Z,101301.78
2022-08-04T05:15:31.910Z,101304.72
2022-08-04T05:18:01.284Z,101305.94
2022-08-04T05:20:56.044Z,101306.56
2022-08-04T05:23:28.214Z,101302.94
2022-08-04T05:26:00.795Z,101307.56
2022-08-04T05:28:30.403Z,101307.03
2022-08-04T05:31:04.581Z,101317.16
2022-08-04T05:33:43.728Z,101313.66
2022-08-04T05:36:33.000Z,101317.03
2022-08-04T05:39:07.789Z,101321.00
2022-08-04T05:41:45.171Z,101321.53
2022-08-04T05:44:17.146Z,101317.97
2022-08-04T05:46:53.752Z,101322.84
2022-08-04T05:49:23.190Z,101331.59
2022-08-04T05:51:50.149Z,101324.38
2022-08-04T05:54:17.920Z,101325.69
2022-08-04T05:56:44.821Z,101338.63
2022-08-04T05:59:12.338Z,101334.34
2022-08-04T06:01:55.454Z,101332.91
2022-08-04T06:04:25.414Z,101327.63
2022-08-04T06:06:53.345Z,101332.53
2022-08-04T06:09:20.966Z,101331.84
2022-08-04T06:12:00.876Z,101326.25
2022-08-04T06:14:40.071Z,101342.16
2022-08-04T06:19:57.715Z,101337.75
2022-08-04T06:20:19.140Z,101334.53
2022-08-04T06:22:53.050Z,101334.63
2022-08-04T06:25:22.822Z,101331.25
2022-08-04T06:27:50.108Z,101334.63
2022-08-04T06:30:19.184Z,101329.47
2022-08-04T06:33:09.565Z,101331.63
2022-08-04T06:35:36.623Z,101337.88
2022-08-04T06:38:03.344Z,101341.41
2022-08-04T06:40:33.356Z,101338.56
2022-08-04T06:43:06.205Z,101339.63
2022-08-04T06:45:34.973Z,101343.84
2022-08-04T06:48:02.026Z,101337.84
2022-08-04T06:51:31.297Z,101340.84
2022-08-04T06:53:16.181Z,101350.16
2022-08-04T06:55:43.832Z,101343.06
2022-08-04T06:58:11.074Z,101344.66
2022-08-04T07:00:39.458Z,101342.88
2022-08-04T07:03:07.485Z,101345.59
2022-08-04T07:05:35.278Z,101348.66
2022-08-04T07:08:02.043Z,101349.69
2022-08-04T07:10:29.399Z,101348.31
2022-08-04T07:13:00.204Z,101362.19
2022-08-04T07:15:27.692Z,101351.38
2022-08-04T07:17:55.199Z,101358.41
2022-08-04T07:20:34.115Z,101359.50
2022-08-04T07:23:04.325Z,101358.56
2022-08-04T07:26:01.029Z,101361.72
2022-08-04T07:28:19.587Z,101354.38
2022-08-04T07:30:47.709Z,101359.97
2022-08-04T07:33:16.285Z,101359.88
2022-08-04T07:36:05.744Z,101362.53
2022-08-04T07:38:30.037Z,101362.00
2022-08-04T07:40:56.771Z,101371.09
2022-08-04T07:43:23.719Z,101367.91
2022-08-04T07:45:50.635Z,101365.31
2022-08-04T07:48:18.888Z,101372.38
2022-08-04T07:50:45.696Z,101360.72
2022-08-04T07:53:54.766Z,101369.25
2022-08-04T07:56:02.459Z,101367.25
2022-08-04T07:58:30.317Z,101361.56
2022-08-04T08:00:57.839Z,101360.16
2022-08-04T08:03:25.973Z,101354.09
2022-08-04T08:06:16.762Z,101352.06
2022-08-04T08:08:40.650Z,101355.97
2022-08-04T08:11:09.050Z,101352.06
2022-08-04T08:13:36.743Z,101351.00
2022-08-04T08:16:04.303Z,101353.44
2022-08-04T08:18:31.684Z,101350.91
2022-08-04T08:21:05.739Z,101349.91
2022-08-04T08:23:34.919Z,101348.75
2022-08-04T08:26:01.800Z,101352.63
2022-08-04T08:28:28.703Z,101354.06
2022-08-04T08:30:55.325Z,101351.53
2022-08-04T08:33:26.384Z,101353.81
2022-08-04T08:36:14.823Z,101358.00
2022-08-04T08:39:06.801Z,101356.16
2022-08-04T08:41:52.189Z,101360.34
2022-08-04T08:44:56.041Z,101361.44
2022-08-04T08:48:06.350Z,101360.69
2022-08-04T08:51:07.504Z,101350.63
2022-08-04T08:53:54.291Z,101360.00
2022-08-04T08:56:34.840Z,101349.44
2022-08-04T08:59:25.788Z,101340.00
2022-08-04T09:02:02.845Z,101350.50
2022-08-04T09:05:02.582Z,101352.47
2022-08-04T09:07:44.463Z,101343.91
2022-08-04T09:10:17.901Z,101333.63
2022-08-04T09:12:53.233Z,101340.28
2022-08-04T09:15:37.778Z,101348.25
2022-08-04T09:18:43.334Z,101347.75
2022-08-04T09:21:44.421Z,101344.72
2022-08-04T09:24:36.363Z,101344.06
2022-08-04T09:27:21.414Z,101349.94
2022-08-04T09:30:09.732Z,101345.31
2022-08-04T09:32:39.315Z,101342.38
2022-08-04T09:35:15.323Z,101344.06
2022-08-04T09:37:46.084Z,101343.53
2022-08-04T09:40:29.212Z,101344.13
2022-08-04T09:43:19.891Z,101343.97
2022-08-04T09:46:07.472Z,101344.88
2022-08-04T09:48:43.666Z,101347.13
2022-08-04T09:51:21.589Z,101353.84
2022-08-04T09:54:30.673Z,101348.16
2022-08-04T09:57:26.857Z,101348.25
2022-08-04T10:00:09.590Z,101342.66
2022-08-04T10:02:38.822Z,101343.44
2022-08-04T10:05:10.047Z,101348.31
2022-08-04T10:08:02.090Z,101340.28
2022-08-04T10:11:24.843Z,101352.03
2022-08-04T10:14:13.883Z,101342.16
2022-08-04T10:16:58.586Z,101344.25
2022-08-04T10:19:31.717Z,101342.41
2022-08-04T10:23:10.645Z,101339.38
2022-08-04T10:26:05.475Z,101341.59
2022-08-04T10:28:36.428Z,101344.13
2022-08-04T10:31:07.061Z,101348.91
2022-08-04T10:33:48.824Z,101341.25
2022-08-04T10:36:18.581Z,101350.06
2022-08-04T10:39:05.664Z,101345.53
2022-08-04T10:41:38.905Z,101338.25
2022-08-04T10:44:08.442Z,101344.16
2022-08-04T10:46:46.435Z,101336.97
2022-08-04T10:49:24.832Z,101338.53
2022-08-04T10:52:08.866Z,101342.69
2022-08-04T10:54:50.052Z,101338.56
2022-08-04T10:57:35.431Z,101337.00
2022-08-04T11:00:04.799Z,101342.72
2022-08-04T11:02:54.749Z,101345.75
2022-08-04T11:05:47.394Z,101338.69
2022-08-04T11:08:27.792Z,101344.75
2022-08-04T11:11:12.266Z,101339.72
2022-08-04T11:13:50.108Z,101343.31
2022-08-04T11:16:24.105Z,101331.66
2022-08-04T11:19:06.671Z,101337.53
2022-08-04T11:21:35.179Z,101338.16
2022-08-04T11:24:18.954Z,101331.66
2022-08-04T11:26:51.943Z,101334.38
2022-08-04T11:29:37.244Z,101324.28
2022-08-04T11:32:11.103Z,101327.13
2022-08-04T11:34:39.100Z,101330.31
2022-08-04T11:37:22.001Z,101325.06
2022-08-04T11:40:01.346Z,101329.59
2022-08-04T11:42:32.023Z,101326.84
2022-08-04T11:45:16.903Z,101324.41
2022-08-04T11:48:00.687Z,101322.31
2022-08-04T11:50:39.088Z,101319.56
2022-08-04T11:53:07.124Z,101314.00
2022-08-04T11:56:08.279Z,101315.16
2022-08-04T11:58:21.477Z,101314.84
2022-08-04T12:00:58.300Z,101315.16
2022-08-04T12:03:33.087Z,101321.13
2022-08-04T12:06:15.749Z,101317.75
2022-08-04T12:08:51.818Z,101315.06
2022-08-04T12:11:23.118Z,101320.09
2022-08-04T12:14:15.146Z,101320.44
2022-08-04T12:16:47.561Z,101316.34
2022-08-04T12:22:35.570Z,101315.91
2022-08-04T12:25:06.377Z,101307.28
2022-08-04T12:28:01.351Z,101311.59
2022-08-04T12:30:57.867Z,101306.78
2022-08-04T12:34:04.384Z,101301.63
2022-08-04T12:37:02.497Z,101300.72
2022-08-04T12:39:30.496Z,101306.19
2022-08-04T12:41:59.750Z,101292.41
2022-08-04T12:44:36.638Z,101301.91
2022-08-04T12:47:26.688Z,101299.34
2022-08-04T12:49:59.031Z,101297.84
2022-08-04T12:55:17.311Z,101292.41
2022-08-04T12:57:46.078Z,101295.50
2022-08-04T13:00:29.268Z,101298.25
2022-08-04T13:03:00.852Z,101291.00
2022-08-04T13:05:35.669Z,101288.44
2022-08-04T13:08:05.242Z,101291.63
2022-08-04T13:10:40.640Z,101289.59
2022-08-04T13:13:15.389Z,101291.44
2022-08-04T13:15:46.713Z,101296.69
2022-08-04T13:18:15.566Z,101292.44
2022-08-04T13:20:44.046Z,101286.06
2022-08-04T13:23:12.268Z,101284.13
2022-08-04T13:26:43.122Z,101283.84
2022-08-04T13:28:42.899Z,101274.94
2022-08-04T13:31:16.881Z,101281.72
2022-08-04T13:33:45.206Z,101274.09
2022-08-04T13:36:12.617Z,101275.84
2022-08-04T13:38:45.963Z,101269.25
2022-08-04T13:41:12.922Z,101269.81
2022-08-04T13:44:17.841Z,101259.19
2022-08-04T13:46:41.029Z,101263.09
2022-08-04T13:49:43.003Z,101257.44
2022-08-04T13:52:11.298Z,101254.91
2022-08-04T13:54:45.581Z,101253.25
2022-08-04T13:57:19.661Z,101241.84
2022-08-04T13:59:50.314Z,101243.47
2022-08-04T14:02:59.391Z,101237.06
2022-08-04T14:05:33.873Z,101243.09
2022-08-04T14:08:07.823Z,101244.28
2022-08-04T14:10:35.865Z,101241.06
2022-08-04T14:13:05.421Z,101236.66
2022-08-04T14:16:02.617Z,101235.00
2022-08-04T14:18:30.623Z,101230.84
2022-08-04T14:21:02.692Z,101234.53
2022-08-04T14:23:33.381Z,101231.66
2022-08-04T14:26:00.143Z,101234.72
2022-08-04T14:28:46.971Z,101231.88
2022-08-04T14:31:19.987Z,101227.84
2022-08-04T14:34:04.325Z,101227.69
2022-08-04T14:37:13.405Z,101228.78
2022-08-04T14:39:42.594Z,101217.56
2022-08-04T14:42:53.960Z,101226.44
2022-08-04T14:45:55.529Z,101219.69
2022-08-04T14:48:22.623Z,101217.63
2022-08-04T14:50:50.675Z,101211.41
2022-08-04T14:53:19.865Z,101214.47
2022-08-04T14:55:48.973Z,101209.63
2022-08-04T14:58:36.458Z,101211.47
2022-08-04T15:01:10.561Z,101215.78
2022-08-04T15:03:50.685Z,101201.31
2022-08-04T15:06:22.121Z,101201.41
2022-08-04T15:08:51.212Z,101197.22
2022-08-04T15:11:23.674Z,101194.91
2022-08-04T15:13:54.263Z,101197.28
2022-08-04T15:16:23.163Z,101202.06
2022-08-04T15:18:50.874Z,101192.81
2022-08-04T15:21:21.191Z,101197.72
2022-08-04T15:23:48.896Z,101195.28
2022-08-04T15:26:17.660Z,101190.56
2022-08-04T15:28:49.258Z,101193.34
2022-08-04T15:32:04.506Z,101189.03
2022-08-04T15:34:03.020Z,101187.56
2022-08-04T15:36:43.375Z,101188.44
2022-08-04T15:39:10.964Z,101183.22
2022-08-04T15:42:02.631Z,101180.50
2022-08-04T15:45:05.538Z,101178.03
2022-08-04T15:47:32.297Z,101174.63
2022-08-04T15:50:12.438Z,101175.81
2022-08-04T15:53:12.883Z,101178.00
2022-08-04T15:55:44.168Z,101171.22
2022-08-04T15:58:15.980Z,101179.19
2022-08-04T16:00:53.912Z,101176.59
2022-08-04T16:03:58.583Z,101174.84
2022-08-04T16:06:22.357Z,101166.63
2022-08-04T16:08:58.079Z,101166.25
2022-08-04T16:11:31.827Z,101160.94
2022-08-04T16:13:58.715Z,101156.75
2022-08-04T16:16:37.311Z,101163.16
2022-08-04T16:19:35.040Z,101157.13
2022-08-04T16:22:03.591Z,101157.81
2022-08-04T16:24:34.971Z,101159.38
2022-08-04T16:27:02.966Z,101150.53
2022-08-04T16:29:40.911Z,101147.66
2022-08-04T16:32:13.520Z,101147.56
2022-08-04T16:35:04.985Z,101146.94
2022-08-04T16:37:35.661Z,101147.97
2022-08-04T16:40:37.625Z,101137.34
2022-08-04T16:43:18.493Z,101143.44
2022-08-04T16:45:58.936Z,101144.50
2022-08-04T16:48:30.805Z,101139.50
2022-08-04T16:51:05.077Z,101133.38
2022-08-04T16:53:53.205Z,101131.06
2022-08-04T16:56:33.534Z,101132.91
2022-08-04T16:59:09.452Z,101129.75
2022-08-04T17:01:37.137Z,101135.84
2022-08-04T17:04:08.047Z,101126.34
2022-08-04T17:06:40.580Z,101130.19
2022-08-04T17:09:17.662Z,101131.81
2022-08-04T17:11:45.662Z,101125.22
2022-08-04T17:14:13.668Z,101121.38
2022-08-04T17:16:43.030Z,101126.69
2022-08-04T17:19:23.708Z,101125.94
2022-08-04T17:22:04.750Z,101124.63
2022-08-04T17:24:38.330Z,101121.22
2022-08-04T17:28:20.102Z,101124.16
2022-08-04T17:29:52.658Z,101124.31
2022-08-04T17:32:21.569Z,101125.63
2022-08-04T17:34:57.419Z,101118.69
2022-08-04T17:37:41.007Z,101114.75
2022-08-04T17:40:18.270Z,101116.34
2022-08-04T17:44:04.223Z,101114.84
2022-08-04T17:46:28.810Z,101112.25
2022-08-04T17:49:16.673Z,101108.38
2022-08-04T17:52:05.235Z,101113.75
2022-08-04T17:54:39.184Z,101102.41
2022-08-04T17:57:20.191Z,101109.06
2022-08-04T17:59:57.664Z,101105.03
2022-08-04T18:02:31.957Z,101111.97
2022-08-04T18:05:07.198Z,101110.56
2022-08-04T18:08:37.981Z,101115.25
2022-08-04T18:10:43.229Z,101118.31
2022-08-04T18:13:24.419Z,101122.81
2022-08-04T18:16:00.768Z,101122.38
2022-08-04T18:18:33.096Z,101129.41
2022-08-04T18:21:02.800Z,101131.56
2022-08-04T18:23:32.225Z,101123.50
2022-08-04T18:25:59.532Z,101129.19
2022-08-04T18:28:30.814Z,101129.44
2022-08-04T18:31:00.028Z,101131.06
2022-08-04T18:33:37.860Z,101131.50
2022-08-04T18:38:58.057Z,101138.97
2022-08-04T18:41:51.685Z,101142.63
2022-08-04T18:44:16.125Z,101147.13
2022-08-04T18:46:52.487Z,101152.03
2022-08-04T18:50:31.787Z,101146.13
2022-08-04T18:52:10.226Z,101146.50
2022-08-04T18:54:42.133Z,101143.50
2022-08-04T18:57:32.344Z,101153.88
2022-08-04T18:59:55.944Z,101156.25
2022-08-04T19:02:23.316Z,101155.16
2022-08-04T19:04:53.310Z,101154.56
2022-08-04T19:07:28.860Z,101158.81
2022-08-04T19:10:06.903Z,101164.81
2022-08-04T19:12:50.603Z,101165.16
2022-08-04T19:15:19.204Z,101173.97
2022-08-04T19:20:32.800Z,101175.88
2022-08-04T19:24:23.446Z,101173.69
2022-08-04T19:26:01.583Z,101184.41
2022-08-04T19:28:35.166Z,101197.09
2022-08-04T19:31:06.927Z,101195.16
2022-08-04T19:33:58.710Z,101205.22
2022-08-04T19:36:27.724Z,101203.44
2022-08-04T19:38:56.817Z,101209.22
2022-08-04T19:41:23.548Z,101210.56
2022-08-04T19:43:53.369Z,101219.47
2022-08-04T19:46:21.364Z,101224.28
2022-08-04T19:48:59.707Z,101227.09
2022-08-04T19:51:28.773Z,101232.06
2022-08-04T19:54:04.027Z,101228.63
2022-08-04T19:56:39.976Z,101236.63
2022-08-04T19:59:08.898Z,101236.41
2022-08-04T20:01:44.672Z,101238.38
2022-08-04T20:04:12.725Z,101237.16
2022-08-04T20:06:39.605Z,101243.00
2022-08-04T20:09:24.668Z,101240.34
2022-08-04T20:11:53.438Z,101246.81
2022-08-04T20:14:31.127Z,101239.66
2022-08-04T20:17:00.538Z,101243.34
2022-08-04T20:19:27.223Z,101242.75
2022-08-04T20:21:56.522Z,101237.84
2022-08-04T20:24:37.792Z,101243.66
2022-08-04T20:27:08.959Z,101239.50
2022-08-04T20:29:43.147Z,101236.31
2022-08-04T20:32:10.326Z,101240.75
2022-08-04T20:34:38.012Z,101231.97
2022-08-04T20:37:07.038Z,101241.97
2022-08-04T20:39:37.008Z,101242.06
2022-08-04T20:42:03.722Z,101246.44
2022-08-04T20:44:30.278Z,101239.97
2022-08-04T20:46:56.853Z,101247.06
2022-08-04T20:49:35.026Z,101238.69
2022-08-04T20:52:13.373Z,101247.31
2022-08-04T20:54:48.435Z,101241.91
2022-08-04T20:57:16.875Z,101234.47
2022-08-04T20:59:43.736Z,101238.31
2022-08-04T21:02:17.092Z,101235.94
2022-08-04T21:04:46.362Z,101237.38
2022-08-04T21:07:16.738Z,101234.41
2022-08-04T21:09:50.788Z,101234.25
2022-08-04T21:12:26.763Z,101234.72
2022-08-04T21:15:01.578Z,101229.53
2022-08-04T21:17:56.859Z,101235.50
2022-08-04T21:20:27.736Z,101237.81
2022-08-04T21:22:54.948Z,101239.53
2022-08-04T21:25:22.334Z,101240.84
2022-08-04T21:27:49.706Z,101237.00
2022-08-04T21:30:25.040Z,101243.63
2022-08-04T21:32:53.413Z,101247.22
2022-08-04T21:35:22.381Z,101243.13
2022-08-04T21:38:03.989Z,101245.44
2022-08-04T21:40:50.757Z,101248.53
2022-08-04T21:43:23.545Z,101246.88
2022-08-04T21:45:54.972Z,101254.28
2022-08-04T21:48:22.393Z,101253.16
2022-08-04T21:50:50.558Z,101252.25
2022-08-04T21:53:19.812Z,101252.44
2022-08-04T21:56:05.817Z,101252.13
2022-08-04T21:58:33.865Z,101250.53
2022-08-04T22:01:00.506Z,101249.09
2022-08-04T22:03:53.199Z,101259.19
2022-08-04T22:06:17.450Z,101256.31
2022-08-04T22:08:49.326Z,101259.44
2022-08-04T22:11:26.434Z,101257.59
2022-08-04T22:14:11.923Z,101250.66
2022-08-04T22:16:39.995Z,101260.28
2022-08-04T22:19:09.018Z,101260.78
2022-08-04T22:21:39.095Z,101263.41
2022-08-04T22:24:13.816Z,101266.16
2022-08-04T22:26:40.609Z,101264.44
2022-08-04T22:29:07.357Z,101269.78
2022-08-04T22:31:55.651Z,101272.19
2022-08-04T22:34:24.750Z,101268.25
2022-08-04T22:36:53.497Z,101264.47
2022-08-04T22:39:23.685Z,101270.03
2022-08-04T22:42:03.277Z,101271.56
2022-08-04T22:44:32.367Z,101280.44
2022-08-04T22:47:00.437Z,101269.84
2022-08-04T22:49:31.913Z,101263.88
2022-08-04T22:51:59.811Z,101265.16
2022-08-04T22:54:32.952Z,101262.19
2022-08-04T22:56:59.981Z,101270.59
2022-08-04T22:59:27.409Z,101263.44
2022-08-04T23:02:00.658Z,101268.06
2022-08-04T23:04:30.166Z,101263.88
2022-08-04T23:06:57.172Z,101268.13
2022-08-04T23:09:48.771Z,101266.28
2022-08-04T23:12:27.222Z,101265.03
2022-08-04T23:14:58.281Z,101272.03
2022-08-04T23:17:27.572Z,101271.66
2022-08-04T23:19:57.730Z,101266.59
2022-08-04T23:22:42.178Z,101271.69
2022-08-04T23:25:16.132Z,101268.09
2022-08-04T23:27:50.921Z,101270.63
2022-08-04T23:30:29.544Z,101270.00
2022-08-04T23:32:57.073Z,101272.53
2022-08-04T23:35:23.623Z,101275.94
2022-08-04T23:37:57.583Z,101267.75
2022-08-04T23:40:32.955Z,101264.63
2022-08-04T23:43:00.577Z,101263.38
2022-08-04T23:46:04.516Z,101260.88
2022-08-04T23:48:20.903Z,101259.19
2022-08-04T23:50:47.835Z,101263.88
2022-08-04T23:53:18.622Z,101257.31
2022-08-04T23:55:49.370Z,101255.25
2022-08-04T23:58:18.796Z,101255.66
